createdAt,value
2018-06-09T00:01:32.251Z,57.10
2018-06-09T00:04:02.438Z,63.37
2018-06-09T00:06:31.531Z,57.60
2018-06-09T00:09:00.799Z,51.13
2018-06-09T00:11:29.997Z,55.37
2018-06-09T00:13:59.492Z,57.80
2018-06-09T00:16:28.677Z,54.20
2018-06-09T00:18:57.892Z,60.97
2018-06-09T00:21:27.163Z,59.93
2018-06-09T00:23:56.509Z,50.90
2018-06-09T00:26:25.830Z,58.77
2018-06-09T00:28:55.213Z,58.13
2018-06-09T00:31:24.077Z,57.60
2018-06-09T00:33:53.753Z,60.77
2018-06-09T00:36:22.987Z,54.10
2018-06-09T00:38:52.054Z,65.17
2018-06-09T00:41:21.207Z,62.67
2018-06-09T00:43:50.052Z,60.63
2018-06-09T00:46:19.128Z,68.87
2018-06-09T00:48:48.213Z,57.07
2018-06-09T00:51:17.616Z,66.63
2018-06-09T00:53:46.963Z,59.30
2018-06-09T00:56:27.141Z,68.37
2018-06-09T00:58:56.376Z,67.97
2018-06-09T01:01:25.624Z,60.07
2018-06-09T01:03:54.885Z,70.33
2018-06-09T01:06:24.042Z,67.77
2018-06-09T01:08:53.253Z,70.13
2018-06-09T01:11:22.573Z,69.23
2018-06-09T01:13:51.771Z,62.50
2018-06-09T01:16:20.856Z,67.23
2018-06-09T01:18:49.992Z,63.40
2018-06-09T01:21:19.327Z,68.37
2018-06-09T01:23:48.560Z,56.63
2018-06-09T01:26:18.559Z,73.73
2018-06-09T01:28:47.859Z,70.53
2018-06-09T01:31:17.027Z,69.73
2018-06-09T01:33:45.789Z,71.30
2018-06-09T01:36:14.591Z,70.30
2018-06-09T01:38:43.684Z,74.37
2018-06-09T01:41:13.363Z,64.00
2018-06-09T01:43:42.923Z,76.60
2018-06-09T01:46:11.783Z,67.27
2018-06-09T01:48:41.457Z,66.73
2018-06-09T01:51:10.531Z,72.83
2018-06-09T01:53:39.815Z,65.20
2018-06-09T01:56:09.001Z,88.53
2018-06-09T01:58:38.219Z,76.17
2018-06-09T02:01:07.828Z,76.10
2018-06-09T02:03:36.919Z,67.23
2018-06-09T02:06:06.273Z,65.37
2018-06-09T02:08:35.470Z,63.37
2018-06-09T02:11:04.793Z,65.17
2018-06-09T02:13:33.895Z,69.73
2018-06-09T02:16:03.064Z,70.63
2018-06-09T02:18:32.404Z,64.57
2018-06-09T02:21:01.618Z,61.93
2018-06-09T02:23:30.792Z,62.40
2018-06-09T02:25:59.958Z,69.40
2018-06-09T02:28:29.258Z,74.57
2018-06-09T02:30:58.453Z,66.97
2018-06-09T02:33:27.674Z,68.93
2018-06-09T02:35:56.845Z,68.00
2018-06-09T02:38:26.932Z,71.30
2018-06-09T02:40:56.919Z,64.37
2018-06-09T02:43:26.315Z,61.63
2018-06-09T02:45:55.746Z,63.53
2018-06-09T02:48:24.940Z,58.33
2018-06-09T02:50:54.120Z,60.73
2018-06-09T02:53:23.306Z,64.70
2018-06-09T02:55:52.636Z,69.47
2018-06-09T02:58:21.802Z,59.77
2018-06-09T03:00:50.897Z,63.03
2018-06-09T03:03:20.099Z,59.23
2018-06-09T03:05:49.493Z,61.73
2018-06-09T03:08:18.654Z,67.50
2018-06-09T03:10:48.197Z,62.30
2018-06-09T03:13:17.894Z,57.17
2018-06-09T03:15:47.540Z,62.50
2018-06-09T03:18:16.761Z,60.93
2018-06-09T03:20:45.829Z,55.30
2018-06-09T03:23:14.956Z,56.17
2018-06-09T03:25:44.453Z,57.13
2018-06-09T03:28:13.235Z,51.30
2018-06-09T03:30:42.736Z,53.53
2018-06-09T03:33:11.933Z,48.93
2018-06-09T03:35:41.265Z,54.50
2018-06-09T03:38:10.362Z,62.20
2018-06-09T03:40:40.553Z,53.60
2018-06-09T03:43:10.261Z,52.80
2018-06-09T03:45:39.458Z,51.33
2018-06-09T03:48:08.575Z,69.60
2018-06-09T03:50:37.800Z,53.30
2018-06-09T03:53:06.961Z,59.20
2018-06-09T03:55:36.578Z,65.47
2018-06-09T03:58:05.815Z,57.57
2018-06-09T04:00:35.001Z,60.93
2018-06-09T04:03:04.948Z,59.03
2018-06-09T04:05:33.830Z,65.77
2018-06-09T04:08:03.165Z,59.20
2018-06-09T04:10:32.218Z,52.07
2018-06-09T04:13:02.008Z,67.73
2018-06-09T04:15:31.377Z,54.00
2018-06-09T04:18:00.447Z,58.13
2018-06-09T04:20:30.132Z,66.60
2018-06-09T04:22:59.268Z,56.53
2018-06-09T04:25:28.569Z,60.83
2018-06-09T04:27:57.804Z,68.70
2018-06-09T04:30:26.943Z,57.23
2018-06-09T04:32:57.190Z,56.43
2018-06-09T04:35:26.445Z,64.10
2018-06-09T04:37:55.568Z,75.17
2018-06-09T04:40:24.831Z,72.20
2018-06-09T04:42:58.517Z,76.23
2018-06-09T04:45:28.242Z,67.60
2018-06-09T04:47:57.509Z,68.00
2018-06-09T04:50:27.706Z,70.97
2018-06-09T04:52:56.840Z,61.77
2018-06-09T04:55:25.987Z,73.90
2018-06-09T04:57:55.288Z,60.20
2018-06-09T05:00:24.495Z,67.37
2018-06-09T05:02:53.777Z,57.60
2018-06-09T05:05:23.007Z,60.17
2018-06-09T05:07:52.275Z,64.83
2018-06-09T05:10:21.378Z,59.03
2018-06-09T05:12:50.678Z,64.93
2018-06-09T05:15:20.125Z,58.90
2018-06-09T05:17:49.780Z,61.97
2018-06-09T05:20:19.001Z,61.33
2018-06-09T05:22:48.184Z,63.43
2018-06-09T05:25:17.370Z,59.10
2018-06-09T05:27:46.729Z,67.23
2018-06-09T05:30:16.112Z,67.37
2018-06-09T05:32:46.535Z,67.57
2018-06-09T05:35:15.802Z,69.30
2018-06-09T05:37:45.052Z,60.70
2018-06-09T05:40:14.221Z,69.13
2018-06-09T05:42:43.445Z,59.77
2018-06-09T05:45:12.802Z,63.93
2018-06-09T05:47:42.527Z,67.10
2018-06-09T05:50:12.356Z,64.43
2018-06-09T05:52:41.473Z,66.33
2018-06-09T05:55:10.861Z,63.30
2018-06-09T05:57:40.026Z,60.67
2018-06-09T06:00:09.285Z,63.47
2018-06-09T06:02:38.691Z,60.63
2018-06-09T06:05:08.329Z,61.67
2018-06-09T06:07:37.478Z,60.93
2018-06-09T06:10:06.222Z,56.77
2018-06-09T06:12:36.012Z,56.87
2018-06-09T06:15:05.360Z,56.40
2018-06-09T06:17:34.858Z,58.30
2018-06-09T06:20:04.523Z,50.20
2018-06-09T06:22:33.799Z,53.53
2018-06-09T06:25:03.006Z,57.70
2018-06-09T06:27:38.892Z,55.23
2018-06-09T06:30:07.992Z,57.23
2018-06-09T06:32:37.185Z,50.53
2018-06-09T06:35:06.541Z,51.90
2018-06-09T06:37:35.616Z,48.53
2018-06-09T06:40:04.845Z,47.13
2018-06-09T06:42:34.012Z,48.40
2018-06-09T06:45:03.380Z,44.77
2018-06-09T06:47:32.478Z,47.87
2018-06-09T06:50:01.699Z,45.47
2018-06-09T06:52:31.166Z,45.27
2018-06-09T06:55:00.532Z,50.17
2018-06-09T06:57:29.976Z,51.27
2018-06-09T06:59:59.632Z,44.30
2018-06-09T07:02:29.663Z,43.23
2018-06-09T07:04:59.021Z,47.13
2018-06-09T07:07:28.228Z,49.00
2018-06-09T07:09:57.460Z,42.17
2018-06-09T07:12:26.694Z,42.40
2018-06-09T07:14:55.924Z,41.90
2018-06-09T07:17:25.126Z,43.13
2018-06-09T07:19:54.427Z,47.70
2018-06-09T07:22:23.651Z,41.57
2018-06-09T07:24:52.932Z,43.83
2018-06-09T07:27:22.290Z,42.43
2018-06-09T07:29:51.882Z,42.80
2018-06-09T07:32:22.012Z,41.47
2018-06-09T07:34:51.250Z,41.27
2018-06-09T07:37:20.343Z,45.77
2018-06-09T07:39:49.802Z,42.93
2018-06-09T07:42:19.107Z,40.23
2018-06-09T07:44:49.092Z,42.37
2018-06-09T07:47:19.244Z,40.90
2018-06-09T07:49:48.470Z,40.50
2018-06-09T07:52:17.690Z,39.10
2018-06-09T07:54:46.818Z,39.83
2018-06-09T07:57:16.112Z,41.53
2018-06-09T07:59:45.421Z,40.07
2018-06-09T08:02:14.590Z,42.10
2018-06-09T08:04:43.681Z,41.13
2018-06-09T08:07:12.808Z,42.90
2018-06-09T08:09:42.858Z,39.27
2018-06-09T08:12:13.999Z,39.90
2018-06-09T08:14:44.150Z,40.40
2018-06-09T08:17:13.561Z,37.50
2018-06-09T08:19:42.658Z,36.47
2018-06-09T08:22:11.777Z,38.40
2018-06-09T08:24:40.946Z,37.33
2018-06-09T08:27:10.259Z,36.70
2018-06-09T08:29:40.580Z,36.87
2018-06-09T08:32:10.000Z,40.67
2018-06-09T08:34:39.334Z,37.93
2018-06-09T08:37:08.499Z,38.83
2018-06-09T08:39:37.780Z,36.80
2018-06-09T08:42:07.049Z,38.70
2018-06-09T08:44:36.160Z,38.60
2018-06-09T08:47:05.334Z,37.83
2018-06-09T08:49:34.550Z,38.17
2018-06-09T08:52:03.824Z,36.60
2018-06-09T08:54:33.298Z,36.37
2018-06-09T08:57:03.241Z,35.53
2018-06-09T08:59:32.458Z,35.63
2018-06-09T09:02:01.692Z,37.30
2018-06-09T09:04:31.219Z,34.03
2018-06-09T09:07:00.351Z,36.90
2018-06-09T09:09:29.636Z,33.20
2018-06-09T09:11:58.868Z,35.20
2018-06-09T09:14:28.808Z,34.47
2018-06-09T09:16:58.009Z,34.67
2018-06-09T09:19:27.106Z,37.03
2018-06-09T09:21:56.149Z,33.87
2018-06-09T09:24:25.620Z,34.50
2018-06-09T09:26:54.784Z,35.20
2018-06-09T09:29:24.130Z,33.53
2018-06-09T09:31:53.293Z,35.80
2018-06-09T09:34:22.592Z,30.07
2018-06-09T09:36:51.814Z,30.63
2018-06-09T09:39:21.598Z,37.83
2018-06-09T09:41:51.208Z,34.50
2018-06-09T09:44:20.823Z,34.33
2018-06-09T09:46:51.731Z,35.33
2018-06-09T09:49:21.183Z,31.23
2018-06-09T09:51:50.348Z,36.20
2018-06-09T09:54:19.446Z,32.50
2018-06-09T09:56:48.778Z,34.93
2018-06-09T09:59:20.124Z,36.00
2018-06-09T10:01:49.308Z,34.60
2018-06-09T10:04:18.715Z,36.90
2018-06-09T10:06:47.608Z,31.03
2018-06-09T10:09:16.484Z,32.03
2018-06-09T10:11:45.790Z,33.47
2018-06-09T10:14:15.021Z,35.17
2018-06-09T10:16:44.239Z,30.10
2018-06-09T10:19:13.452Z,36.25
2018-06-09T10:21:42.724Z,33.78
2018-06-09T10:24:12.465Z,32.90
2018-06-09T10:26:42.012Z,29.27
2018-06-09T10:29:11.361Z,33.58
2018-06-09T10:31:40.467Z,29.95
2018-06-09T10:34:09.679Z,33.02
2018-06-09T10:36:38.836Z,36.03
2018-06-09T10:39:08.692Z,33.67
2018-06-09T10:41:37.892Z,32.63
2018-06-09T10:44:07.077Z,35.67
2018-06-09T10:46:38.882Z,38.47
2018-06-09T10:49:08.068Z,31.03
2018-06-09T10:51:37.241Z,36.63
2018-06-09T10:54:06.366Z,36.27
2018-06-09T10:56:35.593Z,39.30
2018-06-09T10:59:05.043Z,35.08
2018-06-09T11:01:34.092Z,38.55
2018-06-09T11:04:03.235Z,34.83
2018-06-09T11:06:32.520Z,36.67
2018-06-09T11:09:01.810Z,31.75
2018-06-09T11:11:30.980Z,37.10
2018-06-09T11:14:00.265Z,37.00
2018-06-09T11:16:30.773Z,35.05
2018-06-09T11:18:59.967Z,31.47
2018-06-09T11:21:29.272Z,36.03
2018-06-09T11:23:58.321Z,34.48
2018-06-09T11:26:27.531Z,35.13
2018-06-09T11:28:56.998Z,33.00
2018-06-09T11:31:26.471Z,35.67
2018-06-09T11:33:55.569Z,38.45
2018-06-09T11:36:24.900Z,35.38
2018-06-09T11:38:54.035Z,33.28
2018-06-09T11:41:23.548Z,36.70
2018-06-09T11:43:53.794Z,32.75
2018-06-09T11:46:23.154Z,30.43
2018-06-09T11:48:52.280Z,33.50
2018-06-09T11:51:21.421Z,34.70
2018-06-09T11:53:57.502Z,33.18
2018-06-09T11:56:26.723Z,29.10
2018-06-09T11:58:56.029Z,32.38
2018-06-09T12:01:25.192Z,30.08
2018-06-09T12:03:55.099Z,29.52
2018-06-09T12:06:24.858Z,30.20
2018-06-09T12:08:54.076Z,31.97
2018-06-09T12:11:23.128Z,32.73
2018-06-09T12:13:52.184Z,27.48
2018-06-09T12:16:21.428Z,32.55
2018-06-09T12:18:50.749Z,31.35
2018-06-09T12:21:20.159Z,27.80
2018-06-09T12:23:49.382Z,36.17
2018-06-09T12:26:18.547Z,29.55
2018-06-09T12:28:47.733Z,33.40
2018-06-09T12:31:16.934Z,35.73
2018-06-09T12:33:46.095Z,36.28
2018-06-09T12:36:15.350Z,35.37
2018-06-09T12:38:44.738Z,33.13
2018-06-09T12:41:14.043Z,32.70
2018-06-09T12:43:43.342Z,34.13
2018-06-09T12:46:12.534Z,30.67
2018-06-09T12:48:41.944Z,26.73
2018-06-09T12:51:11.365Z,26.45
2018-06-09T12:53:40.518Z,24.85
2018-06-09T12:56:09.698Z,31.35
2018-06-09T12:58:39.219Z,33.15
2018-06-09T13:01:10.076Z,28.62
2018-06-09T13:03:40.310Z,29.95
2018-06-09T13:06:09.505Z,30.37
2018-06-09T13:08:39.262Z,28.47
2018-06-09T13:11:08.473Z,31.33
2018-06-09T13:13:38.268Z,26.60
2018-06-09T13:16:07.438Z,31.12
2018-06-09T13:18:36.638Z,30.10
2018-06-09T13:21:06.143Z,24.43
2018-06-09T13:23:35.528Z,25.77
2018-06-09T13:26:04.719Z,24.12
2018-06-09T13:28:33.882Z,25.43
2018-06-09T13:31:03.009Z,26.57
2018-06-09T13:33:32.425Z,28.60
2018-06-09T13:36:01.754Z,26.85
2018-06-09T13:38:30.834Z,23.67
2018-06-09T13:40:59.908Z,27.50
2018-06-09T13:43:29.116Z,24.72
2018-06-09T13:45:58.502Z,22.30
2018-06-09T13:48:27.619Z,30.15
2018-06-09T13:50:58.238Z,25.88
2018-06-09T13:53:27.511Z,24.55
2018-06-09T13:55:56.720Z,25.62
2018-06-09T13:58:27.266Z,25.80
2018-06-09T14:00:56.375Z,22.52
2018-06-09T14:03:26.312Z,25.92
2018-06-09T14:05:55.503Z,27.32
2018-06-09T14:08:24.782Z,27.10
2018-06-09T14:10:54.596Z,28.47
2018-06-09T14:13:23.923Z,22.95
2018-06-09T14:15:53.698Z,29.72
2018-06-09T14:18:22.872Z,23.50
2018-06-09T14:20:52.204Z,28.65
2018-06-09T14:23:21.308Z,28.38
2018-06-09T14:25:50.486Z,20.17
2018-06-09T14:28:19.789Z,27.00
2018-06-09T14:30:48.849Z,26.15
2018-06-09T14:33:17.954Z,23.18
2018-06-09T14:35:47.229Z,19.50
2018-06-09T14:38:16.453Z,17.65
2018-06-09T14:40:45.535Z,21.02
2018-06-09T14:43:15.173Z,18.80
2018-06-09T14:45:44.268Z,16.73
2018-06-09T14:48:13.566Z,19.32
2018-06-09T14:50:42.844Z,17.10
2018-06-09T14:53:12.025Z,13.83
2018-06-09T14:55:41.271Z,15.70
2018-06-09T14:58:12.266Z,16.48
2018-06-09T15:00:41.664Z,12.60
2018-06-09T15:03:10.911Z,17.82
2018-06-09T15:05:40.665Z,16.42
2018-06-09T15:08:09.714Z,16.10
2018-06-09T15:10:38.904Z,15.28
2018-06-09T15:13:08.133Z,16.80
2018-06-09T15:15:37.445Z,15.13
2018-06-09T15:18:06.817Z,13.53
2018-06-09T15:20:38.919Z,15.45
2018-06-09T15:23:08.232Z,16.45
2018-06-09T15:25:38.529Z,14.58
2018-06-09T15:28:07.672Z,15.23
2018-06-09T15:30:37.268Z,14.85
2018-06-09T15:33:06.385Z,16.17
2018-06-09T15:35:36.113Z,12.33
2018-06-09T15:38:05.297Z,12.93
2018-06-09T15:40:34.432Z,13.53
2018-06-09T15:43:03.647Z,12.68
2018-06-09T15:45:33.005Z,15.15
2018-06-09T15:48:02.130Z,13.68
2018-06-09T15:50:31.336Z,16.07
2018-06-09T15:53:00.481Z,15.05
2018-06-09T15:55:29.719Z,11.65
2018-06-09T15:57:59.610Z,14.40
2018-06-09T16:00:28.937Z,13.90
2018-06-09T16:02:58.104Z,11.50
2018-06-09T16:05:27.295Z,15.83
2018-06-09T16:07:56.895Z,13.55
2018-06-09T16:10:26.006Z,12.73
2018-06-09T16:12:55.706Z,13.90
2018-06-09T16:15:24.877Z,12.60
2018-06-09T16:17:54.039Z,11.90
2018-06-09T16:20:23.560Z,11.55
2018-06-09T16:22:52.936Z,11.40
2018-06-09T16:25:22.023Z,14.33
2018-06-09T16:27:51.399Z,10.95
2018-06-09T16:30:20.591Z,12.58
2018-06-09T16:32:49.680Z,11.70
2018-06-09T16:35:19.025Z,12.15
2018-06-09T16:37:48.163Z,11.83
2018-06-09T16:40:17.435Z,9.63
2018-06-09T16:42:46.647Z,10.98
2018-06-09T16:45:15.869Z,9.90
2018-06-09T16:47:45.094Z,9.70
2018-06-09T16:50:14.252Z,11.95
2018-06-09T16:52:43.782Z,10.58
2018-06-09T16:55:12.830Z,12.68
2018-06-09T16:57:41.915Z,12.07
2018-06-09T17:00:11.157Z,10.58
2018-06-09T17:02:41.032Z,10.90
2018-06-09T17:05:10.198Z,12.20
2018-06-09T17:07:39.523Z,11.45
2018-06-09T17:10:08.742Z,11.45
2018-06-09T17:12:38.711Z,9.65
2018-06-09T17:15:07.892Z,9.63
2018-06-09T17:17:36.955Z,10.43
2018-06-09T17:20:06.016Z,10.50
2018-06-09T17:22:35.121Z,13.70
2018-06-09T17:25:04.997Z,10.80
2018-06-09T17:27:34.234Z,10.38
2018-06-09T17:30:04.203Z,16.00
2018-06-09T17:32:33.289Z,13.30
2018-06-09T17:35:02.472Z,12.93
2018-06-09T17:37:31.752Z,12.10
2018-06-09T17:40:01.079Z,13.03
2018-06-09T17:42:30.247Z,10.53
2018-06-09T17:44:59.473Z,14.50
2018-06-09T17:47:33.569Z,10.63
2018-06-09T17:50:08.656Z,12.55
2018-06-09T17:52:37.989Z,13.95
2018-06-09T17:55:07.167Z,11.50
2018-06-09T17:57:36.302Z,12.88
2018-06-09T18:00:05.488Z,12.28
2018-06-09T18:02:34.707Z,10.93
2018-06-09T18:05:04.043Z,11.93
2018-06-09T18:07:33.810Z,11.48
2018-06-09T18:10:03.166Z,10.70
2018-06-09T18:12:32.395Z,12.73
2018-06-09T18:15:01.589Z,13.55
2018-06-09T18:17:31.611Z,12.55
2018-06-09T18:20:00.674Z,12.18
2018-06-09T18:22:29.866Z,12.18
2018-06-09T18:24:59.060Z,12.35
2018-06-09T18:27:28.280Z,11.93
2018-06-09T18:29:57.603Z,13.83
2018-06-09T18:32:26.727Z,11.43
2018-06-09T18:34:56.234Z,12.43
2018-06-09T18:37:25.615Z,11.88
2018-06-09T18:39:54.792Z,12.15
2018-06-09T18:42:24.610Z,10.70
2018-06-09T18:44:53.840Z,10.38
2018-06-09T18:47:23.981Z,11.97
2018-06-09T18:49:53.305Z,13.80
2018-06-09T18:52:23.164Z,14.28
2018-06-09T18:54:52.478Z,11.55
2018-06-09T18:57:21.743Z,14.63
2018-06-09T18:59:51.096Z,10.95
2018-06-09T19:02:21.047Z,12.40
2018-06-09T19:04:50.255Z,13.57
2018-06-09T19:07:19.652Z,13.50
2018-06-09T19:09:48.709Z,12.67
2018-06-09T19:12:17.942Z,12.27
2018-06-09T19:14:47.123Z,14.17
2018-06-09T19:17:16.443Z,13.57
2018-06-09T19:19:45.647Z,13.47
2018-06-09T19:22:14.963Z,13.80
2018-06-09T19:24:44.197Z,13.73
2018-06-09T19:27:13.259Z,13.37
2018-06-09T19:29:42.535Z,12.07
2018-06-09T19:32:11.648Z,14.57
2018-06-09T19:34:40.701Z,13.40
2018-06-09T19:37:10.177Z,15.57
2018-06-09T19:39:39.572Z,16.03
2018-06-09T19:42:08.658Z,19.97
2018-06-09T19:44:39.061Z,17.73
2018-06-09T19:47:08.327Z,21.80
2018-06-09T19:49:37.214Z,23.87
2018-06-09T19:52:06.486Z,22.80
2018-06-09T19:54:35.618Z,23.83
2018-06-09T19:57:04.896Z,24.97
2018-06-09T19:59:34.159Z,27.27
2018-06-09T20:02:04.024Z,25.37
2018-06-09T20:04:33.169Z,26.53
2018-06-09T20:07:02.492Z,29.50
2018-06-09T20:09:31.599Z,28.10
2018-06-09T20:12:00.750Z,26.20
2018-06-09T20:14:30.642Z,29.03
2018-06-09T20:16:59.872Z,26.57
2018-06-09T20:19:29.520Z,27.03
2018-06-09T20:21:59.121Z,28.27
2018-06-09T20:24:28.267Z,25.63
2018-06-09T20:26:57.476Z,28.17
2018-06-09T20:29:26.672Z,30.27
2018-06-09T20:31:55.767Z,32.33
2018-06-09T20:34:25.139Z,30.90
2018-06-09T20:36:54.780Z,30.40
2018-06-09T20:39:24.648Z,27.63
2018-06-09T20:41:53.749Z,34.50
2018-06-09T20:44:22.819Z,31.33
2018-06-09T20:46:51.697Z,32.27
2018-06-09T20:49:21.308Z,34.53
2018-06-09T20:51:50.668Z,34.43
2018-06-09T20:54:20.678Z,28.47
2018-06-09T20:56:50.426Z,30.30
2018-06-09T20:59:19.550Z,28.73
2018-06-09T21:01:49.506Z,30.90
2018-06-09T21:04:18.524Z,30.00
2018-06-09T21:06:47.760Z,28.33
2018-06-09T21:09:16.826Z,28.43
2018-06-09T21:11:45.873Z,31.60
2018-06-09T21:14:15.240Z,35.47
2018-06-09T21:16:45.096Z,35.90
2018-06-09T21:19:14.139Z,34.33
2018-06-09T21:21:43.440Z,39.70
2018-06-09T21:24:12.531Z,33.60
2018-06-09T21:27:47.699Z,34.63
2018-06-09T21:30:17.530Z,31.00
2018-06-09T21:32:48.220Z,32.43
2018-06-09T21:35:34.036Z,33.57
2018-06-09T21:38:39.793Z,30.97
2018-06-09T21:41:14.272Z,33.77
2018-06-09T21:43:48.738Z,37.73
2018-06-09T21:46:24.381Z,37.50
2018-06-09T21:48:53.579Z,40.73
2018-06-09T21:51:22.988Z,36.73
2018-06-09T21:53:52.040Z,32.37
2018-06-09T21:56:21.404Z,34.10
2018-06-09T21:58:50.625Z,34.00
2018-06-09T22:01:21.376Z,32.80
2018-06-09T22:03:50.556Z,33.50
2018-06-09T22:06:19.763Z,33.30
2018-06-09T22:08:48.869Z,32.03
2018-06-09T22:11:18.124Z,33.23
2018-06-09T22:13:47.319Z,34.67
2018-06-09T22:16:16.563Z,37.90
2018-06-09T22:18:45.758Z,33.33
2018-06-09T22:21:15.155Z,33.90
2018-06-09T22:23:44.360Z,32.50
2018-06-09T22:26:16.776Z,36.27
2018-06-09T22:28:46.676Z,38.33
2018-06-09T22:31:16.074Z,32.23
2018-06-09T22:33:45.278Z,37.57
2018-06-09T22:36:16.159Z,35.03
2018-06-09T22:38:45.474Z,35.27
2018-06-09T22:41:14.658Z,33.20
2018-06-09T22:43:44.005Z,35.27
2018-06-09T22:46:13.187Z,33.27
2018-06-09T22:48:42.653Z,37.10
2018-06-09T22:51:11.876Z,36.40
2018-06-09T22:53:41.509Z,36.43
2018-06-09T22:56:11.162Z,36.97
2018-06-09T22:58:40.659Z,38.47
2018-06-09T23:01:10.600Z,41.33
2018-06-09T23:03:39.656Z,36.80
2018-06-09T23:06:08.612Z,39.27
2018-06-09T23:08:37.751Z,35.57
2018-06-09T23:11:07.121Z,39.60
2018-06-09T23:13:36.416Z,39.70
2018-06-09T23:16:06.740Z,40.17
2018-06-09T23:18:36.070Z,37.53
2018-06-09T23:21:05.447Z,39.57
2018-06-09T23:23:34.899Z,39.27
2018-06-09T23:26:04.571Z,39.23
2018-06-09T23:28:33.845Z,39.17
2018-06-09T23:31:03.688Z,39.87
2018-06-09T23:33:32.875Z,45.17
2018-06-09T23:36:02.737Z,46.00
2018-06-09T23:38:32.904Z,45.70
2018-06-09T23:41:02.571Z,44.00
2018-06-09T23:43:31.720Z,43.73
2018-06-09T23:46:00.978Z,38.20
2018-06-09T23:48:30.145Z,37.17
2018-06-09T23:51:00.262Z,38.97
2018-06-09T23:53:29.386Z,37.50
2018-06-09T23:56:00.263Z,41.23
2018-06-09T23:58:29.723Z,39.80
